createdAt,value
2024-03-02T00:01:12.371Z,89.18
2024-03-02T00:03:39.344Z,91.43
2024-03-02T00:06:06.416Z,86.30
2024-03-02T00:08:33.082Z,85.28
2024-03-02T00:11:01.106Z,88.63
2024-03-02T00:13:28.195Z,89.68
2024-03-02T00:15:56.276Z,88.53
2024-03-02T00:18:27.441Z,93.75
2024-03-02T00:20:55.475Z,90.93
2024-03-02T00:23:22.195Z,93.57
2024-03-02T00:25:50.236Z,93.60
2024-03-02T00:28:20.176Z,96.25
2024-03-02T00:30:56.903Z,96.75
2024-03-02T00:33:28.371Z,89.05
2024-03-02T00:35:55.352Z,96.50
2024-03-02T00:38:24.394Z,93.95
2024-03-02T00:40:51.064Z,90.32
2024-03-02T00:43:49.127Z,96.30
2024-03-02T00:46:20.779Z,91.93
2024-03-02T00:48:55.406Z,89.47
2024-03-02T00:51:23.174Z,88.70
2024-03-02T00:53:50.067Z,93.93
2024-03-02T00:56:17.236Z,93.43
2024-03-02T00:58:43.889Z,98.78
2024-03-02T01:01:10.721Z,90.00
2024-03-02T01:03:37.413Z,96.88
2024-03-02T01:06:05.776Z,99.25
2024-03-02T01:08:32.423Z,97.93
2024-03-02T01:10:59.066Z,92.18
2024-03-02T01:13:25.926Z,96.90
2024-03-02T01:15:52.617Z,95.75
2024-03-02T01:18:19.377Z,98.32
2024-03-02T01:20:46.033Z,96.40
2024-03-02T01:23:14.128Z,102.40
2024-03-02T01:25:42.295Z,88.22
2024-03-02T01:28:08.935Z,91.32
2024-03-02T01:30:35.570Z,88.13
2024-03-02T01:33:02.331Z,90.22
2024-03-02T01:35:28.977Z,95.00
2024-03-02T01:37:55.596Z,101.07
2024-03-02T01:40:23.560Z,97.57
2024-03-02T01:42:50.284Z,95.63
2024-03-02T01:45:17.145Z,104.45
2024-03-02T01:47:43.924Z,103.28
2024-03-02T01:50:12.677Z,101.20
2024-03-02T01:55:06.787Z,95.32
2024-03-02T01:57:37.754Z,96.20
2024-03-02T02:00:05.464Z,97.90
2024-03-02T02:02:32.209Z,105.00
2024-03-02T02:04:58.843Z,101.03
2024-03-02T02:07:25.495Z,106.53
2024-03-02T02:09:52.202Z,94.18
2024-03-02T02:12:18.975Z,105.35
2024-03-02T02:14:50.250Z,95.15
2024-03-02T02:17:17.036Z,98.75
2024-03-02T02:19:43.749Z,111.85
2024-03-02T02:22:12.087Z,104.07
2024-03-02T02:24:41.367Z,108.10
2024-03-02T02:27:08.458Z,112.93
2024-03-02T02:29:35.569Z,107.85
2024-03-02T02:32:02.448Z,115.70
2024-03-02T02:34:29.320Z,99.25
2024-03-02T02:36:56.343Z,120.57
2024-03-02T02:39:24.534Z,105.97
2024-03-02T02:41:51.293Z,119.57
2024-03-02T02:44:18.003Z,106.22
2024-03-02T02:46:47.174Z,125.13
2024-03-02T02:49:13.851Z,120.50
2024-03-02T02:51:40.641Z,112.82
2024-03-02T02:54:07.402Z,111.03
2024-03-02T02:56:37.619Z,107.60
2024-03-02T02:59:04.400Z,110.35
2024-03-02T03:01:31.264Z,109.82
2024-03-02T03:03:58.294Z,110.72
2024-03-02T03:06:25.023Z,109.50
2024-03-02T03:08:51.733Z,112.70
2024-03-02T03:11:18.552Z,111.68
2024-03-02T03:13:46.668Z,99.72
2024-03-02T03:16:13.430Z,102.50
2024-03-02T03:18:40.164Z,99.18
2024-03-02T03:21:06.916Z,96.22
2024-03-02T03:23:33.623Z,108.75
2024-03-02T03:26:00.537Z,110.63
2024-03-02T03:28:27.215Z,102.38
2024-03-02T03:30:55.333Z,101.38
2024-03-02T03:33:22.238Z,108.63
2024-03-02T03:35:48.926Z,103.13
2024-03-02T03:38:15.617Z,104.95
2024-03-02T03:40:42.479Z,98.55
2024-03-02T03:43:12.221Z,104.50
2024-03-02T03:45:39.002Z,99.15
2024-03-02T03:48:07.741Z,97.80
2024-03-02T03:50:34.545Z,97.90
2024-03-02T03:53:01.217Z,100.63
2024-03-02T03:55:27.998Z,96.85
2024-03-02T03:57:54.765Z,91.22
2024-03-02T04:00:21.585Z,93.93
2024-03-02T04:02:48.345Z,103.68
2024-03-02T04:05:16.528Z,103.80
2024-03-02T04:07:43.296Z,98.47
2024-03-02T04:10:11.131Z,95.40
2024-03-02T04:12:38.036Z,101.90
2024-03-02T04:15:06.382Z,99.45
2024-03-02T04:17:34.356Z,97.28
2024-03-02T04:20:01.108Z,91.22
2024-03-02T04:22:29.524Z,91.53
2024-03-02T04:24:56.323Z,102.88
2024-03-02T04:27:23.094Z,100.03
2024-03-02T04:29:50.034Z,102.30
2024-03-02T04:32:19.012Z,99.55
2024-03-02T04:34:48.192Z,102.78
2024-03-02T04:37:15.066Z,107.35
2024-03-02T04:39:43.214Z,101.82
2024-03-02T04:42:10.020Z,101.47
2024-03-02T04:44:36.756Z,101.38
2024-03-02T04:47:03.777Z,120.57
2024-03-02T04:49:30.625Z,104.75
2024-03-02T04:51:57.531Z,105.90
2024-03-02T04:54:24.247Z,101.85
2024-03-02T04:56:52.472Z,106.90
2024-03-02T04:59:19.582Z,107.78
2024-03-02T05:01:46.792Z,104.82
2024-03-02T05:04:13.520Z,100.25
2024-03-02T05:06:40.685Z,98.55
2024-03-02T05:09:07.468Z,111.20
2024-03-02T05:11:34.566Z,117.88
2024-03-02T05:14:02.658Z,122.18
2024-03-02T05:16:29.356Z,108.65
2024-03-02T05:18:56.067Z,109.30
2024-03-02T05:21:22.826Z,120.72
2024-03-02T05:23:49.494Z,132.48
2024-03-02T05:26:19.188Z,116.70
2024-03-02T05:28:45.855Z,115.13
2024-03-02T05:31:16.169Z,119.28
2024-03-02T05:33:43.079Z,110.53
2024-03-02T05:36:10.533Z,118.25
2024-03-02T05:38:37.827Z,113.22
2024-03-02T05:41:04.850Z,120.05
2024-03-02T05:43:31.523Z,113.38
2024-03-02T05:45:58.331Z,104.72
2024-03-02T05:48:26.509Z,139.05
2024-03-02T05:50:53.187Z,135.57
2024-03-02T05:53:19.920Z,139.80
2024-03-02T05:55:46.657Z,129.65
2024-03-02T05:58:13.391Z,111.22
2024-03-02T06:00:40.159Z,115.03
2024-03-02T06:03:06.879Z,125.38
2024-03-02T06:05:34.931Z,125.00
2024-03-02T06:08:01.614Z,116.72
2024-03-02T06:10:28.337Z,117.53
2024-03-02T06:12:55.099Z,114.78
2024-03-02T06:15:21.875Z,106.13
2024-03-02T06:17:48.703Z,118.70
2024-03-02T06:20:15.526Z,113.38
2024-03-02T06:22:43.563Z,106.43
2024-03-02T06:25:10.319Z,112.35
2024-03-02T06:27:37.095Z,106.82
2024-03-02T06:30:04.448Z,116.10
2024-03-02T06:32:31.197Z,93.10
2024-03-02T06:34:57.881Z,100.50
2024-03-02T06:37:24.557Z,105.15
2024-03-02T06:39:54.985Z,95.57
2024-03-02T06:42:21.665Z,96.95
2024-03-02T06:44:48.450Z,95.95
2024-03-02T06:47:15.159Z,94.18
2024-03-02T06:49:41.810Z,90.20
2024-03-02T06:52:08.540Z,84.72
2024-03-02T06:54:35.251Z,93.53
2024-03-02T06:57:03.919Z,101.45
2024-03-02T06:59:30.609Z,93.60
2024-03-02T07:01:57.347Z,91.97
2024-03-02T07:04:24.083Z,91.15
2024-03-02T07:06:50.793Z,86.78
2024-03-02T07:09:17.607Z,91.70
2024-03-02T07:11:44.348Z,82.72
2024-03-02T07:14:12.385Z,81.10
2024-03-02T07:16:39.258Z,76.05
2024-03-02T07:19:06.061Z,79.22
2024-03-02T07:21:32.972Z,84.50
2024-03-02T07:23:59.729Z,84.63
2024-03-02T07:28:56.183Z,82.15
2024-03-02T07:31:24.398Z,89.35
2024-03-02T07:33:51.180Z,84.70
2024-03-02T07:36:18.099Z,100.68
2024-03-02T07:38:44.936Z,86.40
2024-03-02T07:41:11.758Z,81.05
2024-03-02T07:43:38.498Z,77.95
2024-03-02T07:46:05.584Z,86.25
2024-03-02T07:48:33.760Z,78.35
2024-03-02T07:51:00.486Z,93.07
2024-03-02T07:53:27.228Z,102.70
2024-03-02T07:55:54.038Z,153.85
2024-03-02T07:58:20.868Z,175.40
2024-03-02T08:00:48.023Z,220.20
2024-03-02T08:03:15.021Z,77.43
2024-03-02T08:05:43.139Z,81.95
2024-03-02T08:08:09.994Z,75.28
2024-03-02T08:10:36.696Z,75.28
2024-03-02T08:13:03.557Z,71.85
2024-03-02T08:15:30.341Z,73.63
2024-03-02T08:17:57.156Z,71.45
2024-03-02T08:20:24.133Z,71.63
2024-03-02T08:22:52.652Z,68.75
2024-03-02T08:25:19.374Z,72.03
2024-03-02T08:27:46.121Z,69.18
2024-03-02T08:30:13.833Z,75.40
2024-03-02T08:32:40.690Z,70.43
2024-03-02T08:38:39.006Z,66.15
2024-03-02T08:41:05.988Z,74.65
2024-03-02T08:43:32.666Z,72.47
2024-03-02T08:45:59.557Z,64.68
2024-03-02T08:48:26.386Z,61.17
2024-03-02T08:50:53.132Z,62.22
2024-03-02T08:53:19.989Z,71.38
2024-03-02T08:55:48.225Z,61.65
2024-03-02T08:58:15.121Z,62.03
2024-03-02T09:00:42.455Z,69.40
2024-03-02T09:03:09.392Z,67.03
2024-03-02T09:05:36.117Z,66.38
2024-03-02T09:08:02.864Z,60.53
2024-03-02T09:10:29.574Z,56.60
2024-03-02T09:12:57.963Z,71.47
2024-03-02T09:15:24.712Z,62.03
2024-03-02T09:17:51.546Z,66.22
2024-03-02T09:20:18.289Z,63.38
2024-03-02T09:22:45.041Z,58.53
2024-03-02T09:25:11.775Z,59.05
2024-03-02T09:27:38.548Z,58.45
2024-03-02T09:30:09.634Z,55.33
2024-03-02T09:32:36.505Z,54.72
2024-03-02T09:35:03.432Z,53.60
2024-03-02T09:37:30.243Z,47.38
2024-03-02T09:39:57.023Z,49.15
2024-03-02T09:42:25.647Z,53.97
2024-03-02T09:47:20.739Z,46.15
2024-03-02T09:49:47.624Z,46.75
2024-03-02T09:52:14.645Z,42.85
2024-03-02T09:54:41.474Z,44.05
2024-03-02T09:57:08.289Z,42.72
2024-03-02T09:59:34.989Z,39.72
2024-03-02T10:02:03.076Z,42.42
2024-03-02T10:04:31.695Z,42.92
2024-03-02T10:07:12.296Z,39.72
2024-03-02T10:09:39.474Z,40.22
2024-03-02T10:12:07.885Z,43.88
2024-03-02T10:14:34.903Z,41.72
2024-03-02T10:17:06.014Z,38.45
2024-03-02T10:19:34.512Z,38.60
2024-03-02T10:22:04.543Z,38.05
2024-03-02T10:24:37.485Z,37.55
2024-03-02T10:27:09.694Z,40.67
2024-03-02T10:29:38.812Z,39.05
2024-03-02T10:32:05.840Z,36.00
2024-03-02T10:34:34.219Z,35.40
2024-03-02T10:37:02.408Z,38.55
2024-03-02T10:39:29.830Z,37.13
2024-03-02T10:41:57.294Z,30.33
2024-03-02T10:44:24.290Z,34.80
2024-03-02T10:46:51.168Z,35.63
2024-03-02T10:49:18.183Z,34.97
2024-03-02T10:51:46.445Z,36.83
2024-03-02T10:54:13.307Z,36.22
2024-03-02T10:56:41.257Z,36.67
2024-03-02T10:59:27.581Z,30.80
2024-03-02T11:01:59.300Z,33.78
2024-03-02T11:04:28.011Z,32.65
2024-03-02T11:07:01.551Z,33.10
2024-03-02T11:09:29.396Z,32.30
2024-03-02T11:12:03.421Z,30.25
2024-03-02T11:14:32.662Z,29.52
2024-03-02T11:17:01.122Z,31.17
2024-03-02T11:19:28.856Z,29.70
2024-03-02T11:21:57.524Z,27.55
2024-03-02T11:26:58.635Z,25.33
2024-03-02T11:29:46.640Z,26.98
2024-03-02T11:34:46.757Z,23.38
2024-03-02T11:37:15.616Z,24.52
2024-03-02T11:39:44.005Z,25.38
2024-03-02T11:42:12.617Z,38.60
2024-03-02T11:44:40.516Z,23.25
2024-03-02T11:47:09.302Z,21.45
2024-03-02T11:49:40.475Z,27.88
2024-03-02T11:52:08.280Z,24.52
2024-03-02T11:54:38.201Z,24.40
2024-03-02T11:57:05.644Z,20.63
2024-03-02T11:59:32.530Z,19.52
2024-03-02T12:02:00.249Z,18.33
2024-03-02T12:04:27.651Z,21.10
2024-03-02T12:06:58.418Z,19.40
2024-03-02T12:09:25.505Z,21.02
2024-03-02T12:12:05.001Z,16.27
2024-03-02T12:14:32.124Z,18.38
2024-03-02T12:16:58.903Z,17.75
2024-03-02T12:19:25.948Z,18.95
2024-03-02T12:21:53.089Z,16.08
2024-03-02T12:24:22.025Z,14.68
2024-03-02T12:26:49.484Z,16.33
2024-03-02T12:29:17.724Z,16.73
2024-03-02T12:31:44.516Z,15.10
2024-03-02T12:34:12.708Z,16.20
2024-03-02T12:36:39.680Z,15.10
2024-03-02T12:39:06.477Z,16.70
2024-03-02T12:41:33.238Z,15.20
2024-03-02T12:43:59.937Z,18.05
2024-03-02T12:46:28.274Z,18.63
2024-03-02T12:48:55.312Z,14.93
2024-03-02T12:51:22.161Z,16.98
2024-03-02T12:53:54.679Z,14.38
2024-03-02T12:56:21.428Z,11.90
2024-03-02T12:58:48.246Z,13.68
2024-03-02T13:01:16.588Z,10.52
2024-03-02T13:03:44.816Z,9.38
2024-03-02T13:06:12.271Z,12.85
2024-03-02T13:08:39.675Z,11.65
2024-03-02T13:11:06.519Z,13.63
2024-03-02T13:13:33.927Z,14.05
2024-03-02T13:16:01.485Z,12.88
2024-03-02T13:18:30.404Z,14.20
2024-03-02T13:20:58.552Z,13.40
2024-03-02T13:23:25.269Z,15.38
2024-03-02T13:25:52.012Z,12.80
2024-03-02T13:28:18.766Z,16.88
2024-03-02T13:30:45.746Z,18.83
2024-03-02T13:33:12.500Z,19.17
2024-03-02T13:35:39.195Z,19.48
2024-03-02T13:38:07.329Z,19.27
2024-03-02T13:40:34.083Z,17.20
2024-03-02T13:43:00.871Z,26.08
2024-03-02T13:45:27.649Z,22.63
2024-03-02T13:47:54.603Z,24.40
2024-03-02T13:50:21.524Z,21.20
2024-03-02T13:52:48.187Z,21.83
2024-03-02T13:55:16.405Z,24.95
2024-03-02T13:57:43.122Z,21.88
2024-03-02T14:00:10.748Z,23.40
2024-03-02T14:02:37.636Z,23.58
2024-03-02T14:05:05.047Z,22.10
2024-03-02T14:07:31.748Z,23.33
2024-03-02T14:09:58.465Z,21.80
2024-03-02T14:12:26.548Z,23.80
2024-03-02T14:14:53.235Z,26.00
2024-03-02T14:17:20.080Z,24.45
2024-03-02T14:19:46.774Z,24.33
2024-03-02T14:22:13.533Z,24.75
2024-03-02T14:24:40.429Z,23.40
2024-03-02T14:27:15.410Z,26.65
2024-03-02T14:29:53.396Z,28.27
2024-03-02T14:32:20.089Z,25.55
2024-03-02T14:34:46.953Z,25.40
2024-03-02T14:37:14.042Z,30.38
2024-03-02T14:39:40.963Z,30.63
2024-03-02T14:42:07.715Z,31.73
2024-03-02T14:44:34.925Z,34.17
2024-03-02T14:47:03.902Z,54.35
2024-03-02T14:49:31.286Z,42.88
2024-03-02T14:51:58.008Z,35.55
2024-03-02T14:54:24.756Z,34.40
2024-03-02T14:56:51.548Z,32.58
2024-03-02T14:59:18.340Z,34.35
2024-03-02T15:01:45.353Z,33.13
2024-03-02T15:04:13.591Z,32.63
2024-03-02T15:06:40.605Z,36.10
2024-03-02T15:09:08.011Z,29.08
2024-03-02T15:11:36.046Z,29.30
2024-03-02T15:14:02.853Z,30.92
2024-03-02T15:16:29.989Z,30.67
2024-03-02T15:18:56.802Z,31.27
2024-03-02T15:21:25.030Z,32.95
2024-03-02T15:23:51.745Z,29.58
2024-03-02T15:26:18.766Z,29.52
2024-03-02T15:28:45.779Z,30.23
2024-03-02T15:31:12.508Z,40.63
2024-03-02T15:33:39.612Z,49.78
2024-03-02T15:36:07.144Z,43.92
2024-03-02T15:38:36.442Z,45.70
2024-03-02T15:41:05.125Z,36.03
2024-03-02T15:43:31.823Z,50.58
2024-03-02T15:45:58.690Z,60.22
2024-03-02T15:48:25.499Z,57.97
2024-03-02T15:50:52.250Z,78.13
2024-03-02T15:53:19.009Z,47.75
2024-03-02T15:55:47.037Z,28.33
2024-03-02T15:58:13.913Z,28.67
2024-03-02T16:00:40.745Z,34.28
2024-03-02T16:03:07.731Z,35.03
2024-03-02T16:05:34.408Z,37.30
2024-03-02T16:08:01.121Z,34.58
2024-03-02T16:10:27.831Z,48.00
2024-03-02T16:12:55.956Z,34.33
2024-03-02T16:15:22.670Z,37.08
2024-03-02T16:17:49.365Z,32.13
2024-03-02T16:20:16.295Z,28.58
2024-03-02T16:22:43.042Z,30.33
2024-03-02T16:25:10.022Z,43.20
2024-03-02T16:27:36.788Z,33.17
2024-03-02T16:30:06.320Z,31.02
2024-03-02T16:32:33.080Z,36.55
2024-03-02T16:34:59.862Z,40.50
2024-03-02T16:37:26.670Z,42.10
2024-03-02T16:39:53.630Z,44.80
2024-03-02T16:42:36.494Z,45.28
2024-03-02T16:45:05.607Z,57.17
2024-03-02T16:47:32.499Z,60.92
2024-03-02T16:50:00.549Z,48.97
2024-03-02T16:52:28.077Z,43.97
2024-03-02T16:54:55.099Z,130.02
2024-03-02T16:57:21.814Z,117.07
2024-03-02T16:59:48.512Z,104.03
2024-03-02T17:02:16.798Z,98.80
2024-03-02T17:04:44.009Z,60.92
2024-03-02T17:07:10.736Z,54.00
2024-03-02T17:09:37.481Z,41.95
2024-03-02T17:12:04.752Z,40.70
2024-03-02T17:14:31.409Z,39.67
2024-03-02T17:16:58.090Z,50.28
2024-03-02T17:19:26.155Z,40.80
2024-03-02T17:21:52.841Z,48.35
2024-03-02T17:24:19.580Z,44.60
2024-03-02T17:26:46.245Z,48.03
2024-03-02T17:29:12.940Z,49.47
2024-03-02T17:31:39.811Z,61.22
2024-03-02T17:34:06.625Z,101.53
2024-03-02T17:36:34.730Z,97.22
2024-03-02T17:39:01.451Z,71.32
2024-03-02T17:41:28.174Z,67.82
2024-03-02T17:43:55.012Z,112.00
2024-03-02T17:46:21.827Z,77.93
2024-03-02T17:48:48.624Z,157.00
2024-03-02T17:51:16.686Z,255.73
2024-03-02T17:53:44.817Z,63.50
2024-03-02T17:56:11.898Z,148.25
2024-03-02T17:58:38.656Z,135.82
2024-03-02T18:01:05.503Z,102.85
2024-03-02T18:03:32.352Z,47.03
2024-03-02T18:05:59.082Z,50.20
2024-03-02T18:08:25.807Z,47.70
2024-03-02T18:10:53.900Z,47.92
2024-03-02T18:13:20.706Z,49.22
2024-03-02T18:15:50.241Z,49.33
2024-03-02T18:18:18.273Z,45.63
2024-03-02T18:20:45.036Z,47.92
2024-03-02T18:23:11.820Z,57.85
2024-03-02T18:25:38.524Z,64.70
2024-03-02T18:28:07.515Z,67.65
2024-03-02T18:30:34.260Z,65.20
2024-03-02T18:33:01.044Z,100.57
2024-03-02T18:35:27.913Z,71.72
2024-03-02T18:37:54.779Z,60.85
2024-03-02T18:40:21.776Z,54.50
2024-03-02T18:42:48.633Z,59.33
2024-03-02T18:45:16.814Z,57.58
2024-03-02T18:47:45.530Z,51.03
2024-03-02T18:50:12.351Z,50.90
2024-03-02T18:52:39.228Z,47.03
2024-03-02T18:55:06.719Z,51.10
2024-03-02T18:57:33.530Z,46.53
2024-03-02T19:00:00.338Z,50.40
2024-03-02T19:02:28.470Z,46.92
2024-03-02T19:04:55.315Z,48.28
2024-03-02T19:07:22.030Z,52.75
2024-03-02T19:09:48.944Z,51.53
2024-03-02T19:12:15.639Z,50.50
2024-03-02T19:14:42.395Z,56.13
2024-03-02T19:17:09.101Z,64.28
2024-03-02T19:19:37.316Z,64.55
2024-03-02T19:22:08.353Z,60.47
2024-03-02T19:24:38.756Z,56.22
2024-03-02T19:27:06.312Z,57.35
2024-03-02T19:29:33.262Z,56.38
2024-03-02T19:32:05.132Z,56.78
2024-03-02T19:34:34.864Z,66.13
2024-03-02T19:37:03.202Z,74.15
2024-03-02T19:39:29.920Z,69.63
2024-03-02T19:41:56.881Z,63.35
2024-03-02T19:44:23.649Z,66.00
2024-03-02T19:46:50.348Z,65.60
2024-03-02T19:49:17.136Z,79.80
2024-03-02T19:51:43.916Z,80.13
2024-03-02T19:54:12.002Z,59.08
2024-03-02T19:56:38.987Z,59.47
2024-03-02T19:59:05.717Z,56.60
2024-03-02T20:01:32.484Z,56.15
2024-03-02T20:03:59.340Z,57.25
2024-03-02T20:06:26.063Z,54.42
2024-03-02T20:08:52.857Z,62.08
2024-03-02T20:11:20.968Z,62.40
2024-03-02T20:13:47.657Z,65.25
2024-03-02T20:16:14.525Z,57.20
2024-03-02T20:18:41.533Z,52.95
2024-03-02T20:21:08.237Z,57.50
2024-03-02T20:23:34.965Z,55.75
2024-03-02T20:26:01.868Z,55.63
2024-03-02T20:28:29.976Z,52.72
2024-03-02T20:30:56.702Z,63.92
2024-03-02T20:33:23.456Z,65.47
2024-03-02T20:35:50.375Z,66.28
2024-03-02T20:38:17.071Z,64.50
2024-03-02T20:40:43.984Z,64.70
2024-03-02T20:43:11.352Z,61.65
2024-03-02T20:45:39.664Z,56.03
2024-03-02T20:48:07.436Z,59.10
2024-03-02T20:50:34.098Z,51.97
2024-03-02T20:53:00.815Z,53.03
2024-03-02T20:55:27.677Z,54.42
2024-03-02T20:57:54.450Z,49.33
2024-03-02T21:00:21.396Z,48.75
2024-03-02T21:02:49.598Z,49.67
2024-03-02T21:05:16.314Z,51.13
2024-03-02T21:07:43.034Z,55.95
2024-03-02T21:10:10.504Z,60.65
2024-03-02T21:12:37.275Z,56.40
2024-03-02T21:15:04.816Z,74.40
2024-03-02T21:17:31.533Z,54.22
2024-03-02T21:19:59.660Z,50.50
2024-03-02T21:22:26.370Z,50.92
2024-03-02T21:24:53.089Z,50.53
2024-03-02T21:27:21.289Z,50.25
2024-03-02T21:29:48.211Z,49.28
2024-03-02T21:32:14.961Z,50.50
2024-03-02T21:34:41.781Z,50.60
2024-03-02T21:37:09.910Z,50.95
2024-03-02T21:39:42.887Z,50.47
2024-03-02T21:42:13.636Z,50.22
2024-03-02T21:44:40.357Z,57.22
2024-03-02T21:47:07.617Z,54.00
2024-03-02T21:49:34.557Z,52.28
2024-03-02T21:52:01.284Z,49.10
2024-03-02T21:54:29.336Z,52.90
2024-03-02T21:56:56.124Z,53.65
2024-03-02T21:59:22.888Z,53.67
2024-03-02T22:01:49.694Z,55.20
2024-03-02T22:04:16.525Z,52.28
2024-03-02T22:06:43.273Z,56.22
2024-03-02T22:09:10.012Z,52.22
2024-03-02T22:11:38.095Z,52.35
2024-03-02T22:14:04.792Z,59.00
2024-03-02T22:16:31.590Z,59.72
2024-03-02T22:18:58.329Z,59.75
2024-03-02T22:21:25.124Z,58.97
2024-03-02T22:23:51.799Z,60.00
2024-03-02T22:26:18.488Z,64.65
2024-03-02T22:28:46.575Z,59.67
2024-03-02T22:31:13.282Z,65.22
2024-03-02T22:33:40.125Z,68.65
2024-03-02T22:36:07.973Z,67.55
2024-03-02T22:38:34.697Z,60.58
2024-03-02T22:41:01.395Z,65.60
2024-03-02T22:43:28.133Z,60.20
2024-03-02T22:45:56.298Z,66.35
2024-03-02T22:48:23.315Z,68.63
2024-03-02T22:50:50.032Z,68.95
2024-03-02T22:53:16.754Z,67.93
2024-03-02T22:55:43.484Z,67.78
2024-03-02T22:58:10.578Z,65.63
2024-03-02T23:00:37.673Z,68.57
2024-03-02T23:03:05.982Z,62.78
2024-03-02T23:05:32.678Z,65.53
2024-03-02T23:07:59.421Z,64.53
2024-03-02T23:10:26.254Z,66.13
2024-03-02T23:12:53.013Z,65.38
2024-03-02T23:15:19.789Z,66.03
2024-03-02T23:17:46.464Z,74.35
2024-03-02T23:20:15.028Z,72.32
2024-03-02T23:22:41.703Z,68.72
2024-03-02T23:25:08.631Z,66.22
2024-03-02T23:27:35.451Z,62.92
2024-03-02T23:30:02.502Z,65.40
2024-03-02T23:32:29.258Z,75.38
2024-03-02T23:34:56.035Z,70.70
2024-03-02T23:37:24.212Z,72.60
2024-03-02T23:39:51.031Z,72.35
2024-03-02T23:42:17.894Z,72.30
2024-03-02T23:44:44.596Z,77.95
2024-03-02T23:47:11.290Z,70.95
2024-03-02T23:49:38.021Z,68.85
2024-03-02T23:52:05.238Z,72.97
2024-03-02T23:54:33.331Z,74.95
2024-03-02T23:57:00.154Z,71.45
2024-03-02T23:59:26.859Z,67.13
